Cape Cod CGAS, MA

12:52 PM EDT on March 28, 2017 (GMT -0400)
Cape Cod Coast Guard Air Station

Weather History for KFMH - March, 2013

Change the Weather History Date:

Tuesday, March 26, 2013

  Actual Average Record
Temperature  
Mean Temperature 39 °F -  
Max Temperature 46 °F 46 °F 62 °F (2003)
Min Temperature 32 °F 31 °F 23 °F (2009)
Degree Days  
Heating Degree Days 26    
Moisture  
Dew Point 27 °F    
Average Humidity 67    
Maximum Humidity 100    
Minimum Humidity 27    
Precipitation  
Precipitation 0.00 in - - ()
Sea Level Pressure  
Sea Level Pressure 29.64 in    
Wind  
Wind Speed 12 mph (NNW)    
Max Wind Speed 24 mph    
Max Gust Speed 28 mph    
Visibility 10 miles    
Events Snow    
Averages and records for this station are not official NWS values.
T = Trace of Precipitation, MM = Missing Value Source: NWS Daily Summary

Daily Weather History Graph

Daily Weather History Graph

Search for Another Location

Airport or City:

Trip Planner

Search our weather history database for the weather conditions in past years. The results will help you decide how hot, cold, wet, or windy it might be!

Date:

Astronomy

Mar. 26, 2013 Rise Set
Actual Time 6:34 AM EDT 7:01 PM EDT
Civil Twilight 6:07 AM EDT 7:28 PM EDT
Nautical Twilight 5:34 AM EDT 8:01 PM EDT
Astronomical Twilight 5:00 AM EDT 8:35 PM EDT
Moon 6:34 PM EDT (3/26) 5:49 AM EDT (3/26)
Length of Visible Light 13h 21m
Length of Day
12h 26m
Waxing Gibbous, 99% of the Moon is Illuminated
Mar 26
Waxing Gibbous
Mar 27
Full
Apr 3
Last Quarter
Apr 10
New
Apr 18
First Quarter

Hourly Weather History & Observations

Time (EDT) Temp. Windchill Dew Point Humidity Pressure Visibility Wind Dir Wind Speed Gust Speed Precip Events Conditions
12:15 AM 37.4 °F 29.3 °F 32.0 °F 81% 29.45 in 10.0 mi NE 12.7 mph 27.6 mph N/A   Overcast
12:35 AM 37.4 °F 28.9 °F 32.0 °F 81% 29.45 in 10.0 mi NE 13.8 mph 24.2 mph N/A   Overcast
12:55 AM 37.4 °F 28.2 °F 32.0 °F 81% 29.45 in 10.0 mi NNE 16.1 mph 25.3 mph N/A   Overcast
1:15 AM 37.4 °F 30.3 °F 32.0 °F 81% 29.45 in 10.0 mi NNE 10.4 mph 21.9 mph N/A   Overcast
1:35 AM 37.4 °F 28.9 °F 32.0 °F 81% 29.46 in 10.0 mi NNE 13.8 mph 21.9 mph N/A   Overcast
1:55 AM 37.4 °F 28.5 °F 32.0 °F 81% 29.46 in 10.0 mi NNE 15.0 mph 26.5 mph N/A   Overcast
2:15 AM 37.4 °F 28.9 °F 32.0 °F 81% 29.46 in 10.0 mi NNE 13.8 mph 23.0 mph N/A   Overcast
2:35 AM 37.4 °F 28.5 °F 32.0 °F 81% 29.47 in 10.0 mi NNE 15.0 mph 23.0 mph N/A   Overcast
2:55 AM 37.4 °F 28.2 °F 30.2 °F 75% 29.48 in 10.0 mi NNE 16.1 mph 23.0 mph N/A   Mostly Cloudy
3:15 AM 37.4 °F 28.5 °F 28.4 °F 70% 29.49 in 10.0 mi NNE 15.0 mph 24.2 mph N/A   Mostly Cloudy
3:35 AM 37.4 °F 28.2 °F 26.6 °F 65% 29.49 in 10.0 mi NNE 16.1 mph 23.0 mph N/A   Overcast
3:55 AM 37.4 °F 28.9 °F 28.4 °F 70% 29.50 in 10.0 mi North 13.8 mph 21.9 mph N/A   Mostly Cloudy
4:15 AM 32.0 °F 22.5 °F 32.0 °F 100% 29.51 in 4.0 mi North 12.7 mph 21.9 mph 0.03 in Snow Light Snow
4:35 AM 33.8 °F 25.8 °F 32.0 °F 93% 29.52 in 10.0 mi North 10.4 mph 17.3 mph 0.03 in   Overcast
4:55 AM 33.8 °F 25.8 °F 32.0 °F 93% 29.52 in 10.0 mi NNE 10.4 mph 20.7 mph 0.03 in   Overcast
5:15 AM 33.8 °F 24.8 °F 32.0 °F 93% 29.53 in 4.0 mi North 12.7 mph 18.4 mph 0.01 in Snow Light Snow
5:35 AM 32.0 °F 24.2 °F 32.0 °F 100% 29.54 in 10.0 mi NNW 9.2 mph - 0.02 in   Mostly Cloudy
5:55 AM 32.0 °F 24.8 °F 32.0 °F 100% 29.55 in 10.0 mi NNW 8.1 mph - 0.02 in   Mostly Cloudy
6:15 AM 32.0 °F 23.6 °F 32.0 °F 100% 29.56 in 10.0 mi NW 10.4 mph 16.1 mph N/A   Mostly Cloudy
6:35 AM 32.0 °F 24.8 °F 32.0 °F 100% 29.57 in 10.0 mi NW 8.1 mph - N/A   Overcast
6:55 AM 32.0 °F 24.2 °F 32.0 °F 100% 29.58 in 10.0 mi NW 9.2 mph - N/A   Mostly Cloudy
7:15 AM 32.0 °F 24.2 °F 32.0 °F 100% 29.59 in 10.0 mi NW 9.2 mph - N/A   Overcast
7:35 AM 33.8 °F 26.4 °F 30.2 °F 87% 29.60 in 10.0 mi NW 9.2 mph 16.1 mph N/A   Overcast
7:55 AM 33.8 °F 27.0 °F 30.2 °F 87% 29.61 in 10.0 mi NW 8.1 mph - N/A   Overcast
8:15 AM 33.8 °F 27.0 °F 30.2 °F 87% 29.62 in 10.0 mi NW 8.1 mph - N/A   Overcast
8:35 AM 33.8 °F 25.8 °F 28.4 °F 81% 29.63 in 10.0 mi NW 10.4 mph 17.3 mph N/A   Overcast
8:55 AM 35.6 °F 26.6 °F 28.4 °F 75% 29.63 in 10.0 mi NNW 13.8 mph 19.6 mph N/A   Mostly Cloudy
9:15 AM 37.4 °F 28.9 °F 28.4 °F 70% 29.64 in 10.0 mi NNW 13.8 mph 17.3 mph N/A   Scattered Clouds
9:35 AM 37.4 °F 28.5 °F 26.6 °F 65% 29.64 in 10.0 mi NNW 15.0 mph 18.4 mph N/A   Partly Cloudy
9:55 AM 39.2 °F 30.8 °F 24.8 °F 56% 29.65 in 10.0 mi NNW 15.0 mph 21.9 mph N/A   Partly Cloudy
10:15 AM 39.2 °F 31.6 °F 23.0 °F 52% 29.65 in 10.0 mi NNW 12.7 mph 21.9 mph N/A   Clear
10:35 AM 39.2 °F 31.6 °F 23.0 °F 52% 29.66 in 10.0 mi NNW 12.7 mph 24.2 mph N/A   Clear
10:55 AM 41.0 °F 33.5 °F 21.2 °F 45% 29.66 in 10.0 mi North 13.8 mph 21.9 mph N/A   Clear
11:15 AM 41.0 °F 33.9 °F 23.0 °F 49% 29.67 in 10.0 mi North 12.7 mph 24.2 mph N/A   Clear
11:35 AM 41.0 °F 32.8 °F 23.0 °F 49% 29.67 in 10.0 mi NNW 16.1 mph 20.7 mph N/A   Clear
11:55 AM 41.0 °F 33.9 °F 21.2 °F 45% 29.68 in 10.0 mi North 12.7 mph 19.6 mph N/A   Clear
12:15 PM 41.0 °F 33.5 °F 21.2 °F 45% 29.68 in 10.0 mi NNE 13.8 mph 19.6 mph N/A   Clear
12:35 PM 42.8 °F 36.6 °F 23.0 °F 46% 29.68 in 10.0 mi North 11.5 mph 18.4 mph N/A   Clear
12:55 PM 44.6 °F 38.4 °F 21.2 °F 39% 29.68 in 10.0 mi North 12.7 mph 18.4 mph N/A   Partly Cloudy
1:15 PM 44.6 °F 38.8 °F 19.4 °F 37% 29.68 in 10.0 mi North 11.5 mph 17.3 mph N/A   Clear
1:35 PM 44.6 °F 39.7 °F 21.2 °F 39% 29.68 in 10.0 mi NNE 9.2 mph 16.1 mph N/A   Clear
1:55 PM 44.6 °F 39.7 °F 21.2 °F 39% 29.68 in 10.0 mi NE 9.2 mph - N/A   Clear
2:15 PM 44.6 °F 38.4 °F 21.2 °F 39% 29.67 in 10.0 mi NE 12.7 mph 17.3 mph N/A   Partly Cloudy
2:35 PM 44.6 °F 38.8 °F 21.2 °F 39% 29.67 in 10.0 mi NE 11.5 mph 16.1 mph N/A   Clear
2:55 PM 44.6 °F 40.2 °F 21.2 °F 39% 29.67 in 10.0 mi NNE 8.1 mph - N/A   Partly Cloudy
3:15 PM 44.6 °F 39.7 °F 21.2 °F 39% 29.67 in 10.0 mi ENE 9.2 mph - N/A   Partly Cloudy
3:35 PM 44.6 °F 43.1 °F 21.2 °F 39% 29.68 in 10.0 mi ENE 3.5 mph - N/A   Partly Cloudy
3:55 PM 46.4 °F 44.3 °F 21.2 °F 37% 29.68 in 10.0 mi NNE 4.6 mph - N/A   Mostly Cloudy
4:15 PM 46.4 °F 42.9 °F 23.0 °F 40% 29.69 in 10.0 mi NW 6.9 mph - N/A   Mostly Cloudy
4:35 PM 46.4 °F 45.2 °F 23.0 °F 40% 29.69 in 10.0 mi North 3.5 mph - N/A   Mostly Cloudy
4:55 PM 44.6 °F - 21.2 °F 39% 29.69 in 10.0 mi Calm Calm - N/A   Mostly Cloudy
5:15 PM 46.4 °F 45.2 °F 23.0 °F 40% 29.70 in 10.0 mi West 3.5 mph - N/A   Overcast
5:35 PM 44.6 °F 40.7 °F 24.8 °F 46% 29.71 in 10.0 mi SSE 6.9 mph - N/A   Overcast
5:55 PM 41.0 °F 35.2 °F 24.8 °F 53% 29.72 in 10.0 mi South 9.2 mph - N/A   Overcast
6:15 PM 41.0 °F 34.7 °F 26.6 °F 57% 29.73 in 10.0 mi SSE 10.4 mph - N/A   Overcast
6:35 PM 39.2 °F 34.2 °F 28.4 °F 65% 29.73 in 10.0 mi SW 6.9 mph - N/A   Scattered Clouds
6:55 PM 39.2 °F 33.6 °F 28.4 °F 65% 29.73 in 10.0 mi SW 8.1 mph - N/A   Mostly Cloudy
7:15 PM 37.4 °F 31.4 °F 30.2 °F 75% 29.74 in 10.0 mi SW 8.1 mph - N/A   Mostly Cloudy
7:35 PM 37.4 °F 30.3 °F 32.0 °F 81% 29.74 in 10.0 mi WSW 10.4 mph - N/A   Partly Cloudy
7:55 PM 37.4 °F 32.1 °F 32.0 °F 81% 29.75 in 10.0 mi WSW 6.9 mph - N/A   Partly Cloudy
8:15 PM 37.4 °F 31.4 °F 32.0 °F 81% 29.75 in 10.0 mi WSW 8.1 mph - N/A   Clear
8:35 PM 35.6 °F 29.2 °F 32.0 °F 87% 29.76 in 10.0 mi West 8.1 mph - N/A   Clear
8:55 PM 35.6 °F 29.2 °F 32.0 °F 87% 29.76 in 10.0 mi WSW 8.1 mph - N/A   Clear
9:15 PM 35.6 °F 29.9 °F 32.0 °F 87% 29.77 in 10.0 mi West 6.9 mph - N/A   Clear
9:35 PM 35.6 °F 29.2 °F 32.0 °F 87% 29.77 in 10.0 mi West 8.1 mph - N/A   Partly Cloudy
9:55 PM 35.6 °F 29.2 °F 28.4 °F 75% 29.77 in 10.0 mi West 8.1 mph - N/A   Clear
10:15 PM 35.6 °F 29.2 °F 28.4 °F 75% 29.77 in 10.0 mi West 8.1 mph - N/A   Clear
10:35 PM 35.6 °F 28.6 °F 28.4 °F 75% 29.77 in 10.0 mi West 9.2 mph - N/A   Clear
10:55 PM 35.6 °F 28.6 °F 26.6 °F 70% 29.77 in 10.0 mi WNW 9.2 mph - N/A   Clear
11:15 PM 35.6 °F 28.6 °F 26.6 °F 70% 29.77 in 10.0 mi West 9.2 mph - N/A   Clear
11:35 PM 33.8 °F 26.4 °F 26.6 °F 75% 29.77 in 10.0 mi West 9.2 mph - N/A   Clear
11:55 PM 32.0 °F 24.8 °F 24.8 °F 75% 29.77 in 10.0 mi West 8.1 mph - N/A   Clear